Time;durP1;ratioP1;P1;durP2;ratioP2;P2;SDS_P1;SDS_P2;PMS_P1;PMS_P2;Temp;Humidity;BMP_temperature;BMP_pressure;BME280_temperature;BME280_humidity;BME280_pressure;Samples;Min_cycle;Max_cycle;Signal;HPM_P1;HPM_P2
2022/06/08 00:00:18;;;;;;;2.08;0.80;;;17.20;75.80;;;;;;4998410;28;20062;-68
2022/06/08 00:02:48;;;;;;;1.50;0.80;;;17.20;75.80;;;;;;4996258;28;20049;-68
2022/06/08 00:05:13;;;;;;;0.80;0.80;;;17.20;75.90;;;;;;4996601;28;20034;-69
2022/06/08 00:07:39;;;;;;;1.38;0.80;;;17.20;75.90;;;;;;4994686;28;20425;-68
2022/06/08 00:10:06;;;;;;;0.90;0.85;;;17.20;75.90;;;;;;4995790;28;20038;-69
2022/06/08 00:12:32;;;;;;;2.25;0.88;;;17.20;76.00;;;;;;4994509;28;20118;-68
2022/06/08 00:14:58;;;;;;;2.67;0.88;;;17.10;76.00;;;;;;4995825;28;20125;-70
2022/06/08 00:17:24;;;;;;;1.20;1.10;;;17.10;76.10;;;;;;4997674;28;20483;-69
2022/06/08 00:19:49;;;;;;;2.22;1.20;;;17.10;76.20;;;;;;4996152;28;20096;-69
2022/06/08 00:22:15;;;;;;;1.50;0.90;;;17.10;76.20;;;;;;4996403;28;20040;-69
2022/06/08 00:24:40;;;;;;;2.15;1.10;;;17.10;76.30;;;;;;4996517;28;20129;-68
2022/06/08 00:27:07;;;;;;;0.93;0.93;;;17.00;76.30;;;;;;4997488;28;20062;-69
2022/06/08 00:29:33;;;;;;;1.77;1.17;;;17.00;76.30;;;;;;5000495;28;20038;-68
2022/06/08 00:31:59;;;;;;;1.77;1.05;;;17.00;76.40;;;;;;4993450;28;20519;-69
2022/06/08 00:34:25;;;;;;;1.27;1.17;;;17.00;76.60;;;;;;4996275;28;20042;-67
2022/06/08 00:36:50;;;;;;;4.13;1.30;;;17.00;76.70;;;;;;4996354;28;20030;-68
2022/06/08 00:39:16;;;;;;;2.33;1.20;;;16.90;76.60;;;;;;4994878;28;20509;-68
2022/06/08 00:41:44;;;;;;;2.20;1.30;;;16.90;76.80;;;;;;4992114;28;20046;-68
2022/06/08 00:44:16;;;;;;;1.23;1.13;;;16.90;77.20;;;;;;5008712;28;20444;-69
2022/06/08 00:46:42;;;;;;;1.55;1.25;;;16.90;77.20;;;;;;4996851;28;20435;-68
2022/06/08 00:49:23;;;;;;;1.40;1.30;;;16.90;77.10;;;;;;4996775;28;20517;-68
2022/06/08 00:51:49;;;;;;;2.85;1.52;;;16.90;77.70;;;;;;4995547;28;20586;-69
2022/06/08 00:54:24;;;;;;;2.25;1.50;;;16.90;77.30;;;;;;4995507;28;20075;-69
2022/06/08 00:56:56;;;;;;;1.38;1.20;;;16.90;77.70;;;;;;4995374;28;20035;-68
2022/06/08 00:59:22;;;;;;;2.15;1.20;;;16.90;77.50;;;;;;4996702;28;20081;-69
2022/06/08 01:01:48;;;;;;;2.72;1.50;;;16.90;77.40;;;;;;4999789;28;20034;-70
2022/06/08 01:04:18;;;;;;;2.00;1.17;;;16.90;77.50;;;;;;5000179;28;20034;-68
2022/06/08 01:06:49;;;;;;;1.40;1.30;;;16.80;77.70;;;;;;4995483;28;20046;-68
2022/06/08 01:09:36;;;;;;;2.40;1.05;;;16.80;77.50;;;;;;4994456;28;20557;-68
2022/06/08 01:12:12;;;;;;;1.23;1.17;;;16.80;77.90;;;;;;4993061;28;20533;-68
2022/06/08 01:14:38;;;;;;;1.33;1.23;;;16.80;77.60;;;;;;4996604;28;20041;-68
2022/06/08 01:17:10;;;;;;;1.40;1.30;;;16.80;77.30;;;;;;4996001;28;20116;-68
2022/06/08 01:19:44;;;;;;;1.65;1.40;;;16.80;77.50;;;;;;5009417;28;20038;-69
2022/06/08 01:22:12;;;;;;;1.42;1.33;;;16.80;77.50;;;;;;4994721;28;20527;-69
2022/06/08 01:24:39;;;;;;;1.40;1.27;;;16.90;77.50;;;;;;4993185;28;20589;-68
2022/06/08 01:27:31;;;;;;;3.25;1.45;;;16.90;77.30;;;;;;4994590;28;20033;-69
2022/06/08 01:30:15;;;;;;;1.50;1.38;;;16.90;77.90;;;;;;4994231;28;20079;-70
2022/06/08 01:32:56;;;;;;;2.53;1.10;;;16.90;77.60;;;;;;4995393;28;20062;-66
2022/06/08 01:35:27;;;;;;;1.73;1.45;;;16.90;77.20;;;;;;4992675;28;20045;-69
2022/06/08 01:38:21;;;;;;;1.65;1.35;;;16.80;76.80;;;;;;4993686;28;20732;-68
2022/06/08 01:41:16;;;;;;;1.30;1.20;;;16.80;77.30;;;;;;4993345;28;20129;-69
2022/06/08 01:44:13;;;;;;;2.03;1.55;;;16.70;77.20;;;;;;4994431;28;20034;-68
2022/06/08 01:47:01;;;;;;;2.67;1.38;;;16.70;77.00;;;;;;4999688;28;20056;-68
2022/06/08 01:49:57;;;;;;;2.95;1.40;;;16.60;77.10;;;;;;4999176;28;20031;-68
2022/06/08 01:52:34;;;;;;;1.85;1.20;;;16.50;77.20;;;;;;4996722;28;20037;-68
2022/06/08 01:55:10;;;;;;;4.30;1.40;;;16.40;77.10;;;;;;4997382;28;20060;-70
2022/06/08 01:57:35;;;;;;;2.03;1.38;;;16.40;77.10;;;;;;5004134;28;20034;-68
2022/06/08 02:00:09;;;;;;;5.15;1.20;;;16.30;77.20;;;;;;4997856;28;20038;-69
2022/06/08 02:02:53;;;;;;;1.35;1.25;;;16.20;77.50;;;;;;4994593;28;20045;-68
2022/06/08 02:05:26;;;;;;;2.35;1.25;;;16.20;78.20;;;;;;4998422;28;20173;-69
2022/06/08 02:08:21;;;;;;;4.28;1.52;;;16.20;77.50;;;;;;4995294;28;20573;-69
2022/06/08 02:10:58;;;;;;;2.15;1.27;;;16.20;77.50;;;;;;4995575;28;20034;-67
2022/06/08 02:13:42;;;;;;;2.97;1.42;;;16.20;77.60;;;;;;4995646;28;20060;-68
2022/06/08 02:16:27;;;;;;;2.83;1.40;;;16.20;77.10;;;;;;4993577;28;20037;-68
2022/06/08 02:19:13;;;;;;;1.40;1.30;;;16.20;77.00;;;;;;4996989;28;20088;-68
2022/06/08 02:22:06;;;;;;;2.35;1.48;;;16.10;78.00;;;;;;4996563;28;20439;-70
2022/06/08 02:24:44;;;;;;;3.60;1.55;;;16.10;77.40;;;;;;4995944;28;20030;-68
2022/06/08 02:27:22;;;;;;;2.83;1.70;;;16.10;77.20;;;;;;4995895;28;20052;-68
2022/06/08 02:29:50;;;;;;;1.60;1.50;;;16.10;77.40;;;;;;4998221;28;20488;-68
2022/06/08 02:35:15;;;;;;;2.80;1.70;;;16.10;77.20;;;;;;4995218;28;20220;-68
2022/06/08 02:37:45;;;;;;;2.65;1.88;;;16.10;77.20;;;;;;4998661;28;20152;-68
2022/06/08 02:40:16;;;;;;;2.22;2.00;;;16.10;77.30;;;;;;4996129;28;20038;-69
2022/06/08 02:42:50;;;;;;;1.90;1.80;;;16.10;77.50;;;;;;4993790;28;20517;-69
2022/06/08 02:45:22;;;;;;;1.85;1.73;;;16.00;78.00;;;;;;4994773;28;20057;-68
2022/06/08 02:47:51;;;;;;;4.75;2.00;;;16.00;77.90;;;;;;4999411;28;20516;-69
2022/06/08 02:50:22;;;;;;;3.17;2.10;;;16.00;77.90;;;;;;4997483;28;20031;-69
2022/06/08 02:52:50;;;;;;;2.25;1.80;;;16.00;78.10;;;;;;4993537;28;20034;-69
2022/06/08 02:55:27;;;;;;;2.97;1.90;;;15.90;78.00;;;;;;4995324;28;20643;-69
2022/06/08 02:58:02;;;;;;;1.90;1.80;;;15.90;77.90;;;;;;4996249;28;20411;-68
2022/06/08 03:00:36;;;;;;;1.75;1.65;;;15.90;77.70;;;;;;4997094;28;20038;-68
2022/06/08 03:03:15;;;;;;;2.83;1.80;;;15.90;77.70;;;;;;4992302;28;20033;-70
2022/06/08 03:05:52;;;;;;;2.95;1.50;;;15.90;77.50;;;;;;4997056;28;20027;-68
2022/06/08 03:08:29;;;;;;;6.15;1.77;;;15.90;77.30;;;;;;4995190;28;20038;-68
2022/06/08 03:11:00;;;;;;;2.88;1.45;;;15.80;77.20;;;;;;4996626;28;20043;-68
2022/06/08 03:13:32;;;;;;;2.08;1.65;;;15.80;77.00;;;;;;4992646;28;20033;-70
2022/06/08 03:16:01;;;;;;;1.70;1.60;;;15.70;76.90;;;;;;4997374;28;20449;-69
2022/06/08 03:18:28;;;;;;;1.60;1.25;;;15.70;76.90;;;;;;4995219;28;20505;-68
2022/06/08 03:20:54;;;;;;;3.72;1.45;;;15.60;76.80;;;;;;4996475;28;20745;-68
2022/06/08 03:23:20;;;;;;;1.50;1.40;;;15.50;76.90;;;;;;4995212;28;20034;-69
2022/06/08 03:25:47;;;;;;;1.85;1.55;;;15.40;76.90;;;;;;4991951;28;20064;-69
2022/06/08 03:28:14;;;;;;;3.78;1.70;;;15.30;77.00;;;;;;4995928;28;20037;-68
2022/06/08 03:30:41;;;;;;;1.75;1.33;;;15.30;77.20;;;;;;4993958;28;20536;-68
2022/06/08 03:33:08;;;;;;;2.90;1.35;;;15.10;77.20;;;;;;4994168;28;20034;-68
2022/06/08 03:35:34;;;;;;;1.23;1.13;;;15.00;77.20;;;;;;4994523;28;20444;-69
2022/06/08 03:38:00;;;;;;;0.88;0.88;;;14.90;77.30;;;;;;4995956;28;20029;-69
2022/06/08 03:40:27;;;;;;;0.95;0.90;;;14.80;77.20;;;;;;4995959;28;20313;-68
2022/06/08 03:42:54;;;;;;;0.93;0.77;;;14.70;77.20;;;;;;4991070;28;20041;-70
2022/06/08 03:45:19;;;;;;;0.70;0.70;;;14.60;77.30;;;;;;4994097;28;20041;-68
2022/06/08 03:47:48;;;;;;;1.00;1.00;;;14.50;77.50;;;;;;4996221;28;20025;-68
2022/06/08 03:50:19;;;;;;;0.95;0.95;;;14.40;77.80;;;;;;4996787;28;20520;-68
2022/06/08 03:52:55;;;;;;;0.85;0.85;;;14.30;78.00;;;;;;4993169;28;20049;-69
2022/06/08 03:55:22;;;;;;;1.17;1.08;;;14.20;78.40;;;;;;4997052;28;20269;-68
2022/06/08 03:57:50;;;;;;;0.98;0.98;;;14.20;78.40;;;;;;4997033;28;20102;-68
2022/06/08 04:00:19;;;;;;;0.90;0.90;;;14.10;78.80;;;;;;4996438;28;20064;-69
2022/06/08 04:02:47;;;;;;;0.88;0.85;;;14.10;79.10;;;;;;4995876;28;20088;-68
2022/06/08 04:05:14;;;;;;;0.93;0.90;;;14.10;79.40;;;;;;4996237;28;20033;-69
2022/06/08 04:07:40;;;;;;;1.02;1.02;;;14.00;79.40;;;;;;4997572;28;20524;-68
2022/06/08 04:10:07;;;;;;;1.00;1.00;;;14.00;79.60;;;;;;4992252;28;20149;-68
2022/06/08 04:12:32;;;;;;;1.05;0.93;;;14.00;79.80;;;;;;4990611;28;20738;-68
2022/06/08 04:14:58;;;;;;;0.98;0.98;;;14.00;79.90;;;;;;4993356;28;20144;-69
2022/06/08 04:17:23;;;;;;;1.02;0.93;;;14.00;80.00;;;;;;4995240;28;20041;-68
2022/06/08 04:19:49;;;;;;;1.60;1.50;;;14.00;80.10;;;;;;4996492;28;20065;-69
2022/06/08 04:22:18;;;;;;;1.50;1.40;;;14.00;80.40;;;;;;4995866;28;20073;-68
2022/06/08 04:24:44;;;;;;;1.40;1.00;;;14.00;80.50;;;;;;4990871;28;20038;-70
2022/06/08 04:27:11;;;;;;;1.10;1.00;;;14.00;80.70;;;;;;4986844;28;20069;-69
2022/06/08 04:29:37;;;;;;;1.00;1.00;;;14.00;81.00;;;;;;4986962;28;20034;-70
2022/06/08 04:32:05;;;;;;;1.13;0.80;;;14.10;81.20;;;;;;4989953;28;20097;-67
2022/06/08 04:34:31;;;;;;;2.15;0.90;;;14.10;81.30;;;;;;4988332;28;20034;-69
2022/06/08 04:36:56;;;;;;;1.00;1.00;;;14.10;81.40;;;;;;4992290;28;20037;-69
2022/06/08 04:39:22;;;;;;;2.40;0.90;;;14.20;81.70;;;;;;4991952;28;20034;-68
2022/06/08 04:41:48;;;;;;;1.08;1.00;;;14.30;81.80;;;;;;4991734;28;20121;-71
2022/06/08 04:44:13;;;;;;;1.33;1.10;;;14.30;81.80;;;;;;4993111;28;20041;-71
2022/06/08 04:46:40;;;;;;;1.70;0.82;;;14.40;81.90;;;;;;4989296;28;20449;-69
2022/06/08 04:49:06;;;;;;;1.17;1.17;;;14.50;82.70;;;;;;4991601;28;20705;-69
2022/06/08 04:51:33;;;;;;;1.83;1.20;;;14.50;81.80;;;;;;4992078;28;20042;-70
2022/06/08 04:53:59;;;;;;;2.50;1.27;;;14.60;81.70;;;;;;4990703;28;20041;-68
2022/06/08 04:56:25;;;;;;;2.45;1.38;;;14.60;81.70;;;;;;4993039;28;20401;-69
2022/06/08 04:58:54;;;;;;;1.58;1.30;;;14.60;81.70;;;;;;4999177;28;20041;-68
2022/06/08 05:01:20;;;;;;;1.52;1.30;;;14.70;81.80;;;;;;4991319;28;20034;-69
2022/06/08 05:03:46;;;;;;;3.28;1.17;;;14.70;81.70;;;;;;4995944;28;20026;-70
2022/06/08 05:06:11;;;;;;;1.65;1.30;;;14.70;81.50;;;;;;4989821;28;20509;-69
2022/06/08 05:08:37;;;;;;;2.13;1.40;;;14.70;81.30;;;;;;4995692;28;20034;-69
2022/06/08 05:11:05;;;;;;;1.55;1.33;;;14.70;81.40;;;;;;4994361;28;20038;-70
2022/06/08 05:13:31;;;;;;;1.52;1.42;;;14.70;81.50;;;;;;4992740;28;20125;-70
2022/06/08 05:15:57;;;;;;;2.28;1.40;;;14.70;81.70;;;;;;4992381;28;20034;-73
2022/06/08 05:18:23;;;;;;;9.27;1.40;;;14.70;81.70;;;;;;4997575;28;20022;-69
2022/06/08 05:20:51;;;;;;;6.47;1.30;;;14.60;81.70;;;;;;4992764;28;20677;-68
2022/06/08 05:23:34;;;;;;;9.30;1.30;;;14.60;81.90;;;;;;4995801;28;20066;-71
2022/06/08 05:26:00;;;;;;;12.25;1.77;;;14.60;82.60;;;;;;4997151;28;20060;-69
2022/06/08 05:28:25;;;;;;;17.95;2.05;;;14.60;82.10;;;;;;4998270;28;20042;-68
2022/06/08 05:30:53;;;;;;;15.63;1.98;;;14.50;82.40;;;;;;4996193;28;20049;-69
2022/06/08 05:33:19;;;;;;;12.05;1.92;;;14.50;82.70;;;;;;4994699;28;20243;-69
2022/06/08 05:35:45;;;;;;;2.47;1.70;;;14.50;83.80;;;;;;4993904;28;20602;-69
2022/06/08 05:38:11;;;;;;;2.05;1.80;;;14.50;83.40;;;;;;4995600;28;20552;-68
2022/06/08 05:40:37;;;;;;;6.68;1.98;;;14.40;83.80;;;;;;4997001;28;20041;-69
2022/06/08 05:43:10;;;;;;;17.88;2.40;;;14.40;83.90;;;;;;4995601;28;20034;-69
2022/06/08 05:45:36;;;;;;;15.13;2.45;;;14.50;84.60;;;;;;5012276;28;20678;-67
2022/06/08 05:48:04;;;;;;;19.58;2.72;;;14.50;84.60;;;;;;4993782;28;20085;-69
2022/06/08 05:50:30;;;;;;;19.95;2.70;;;14.50;84.70;;;;;;4991932;28;20132;-68
2022/06/08 05:52:56;;;;;;;29.40;2.30;;;14.60;85.10;;;;;;4991345;28;20041;-68
2022/06/08 05:55:24;;;;;;;7.63;2.50;;;14.60;85.40;;;;;;5001168;28;20539;-68
2022/06/08 05:57:51;;;;;;;2.50;2.40;;;14.60;85.50;;;;;;4996998;28;20045;-69
2022/06/08 06:00:21;;;;;;;4.53;2.42;;;14.70;85.50;;;;;;4996479;28;20030;-68
2022/06/08 06:02:46;;;;;;;2.67;2.47;;;14.70;85.70;;;;;;4993201;28;20041;-68
2022/06/08 06:05:15;;;;;;;3.80;2.33;;;14.80;85.80;;;;;;4994818;28;20390;-70
2022/06/08 06:07:42;;;;;;;2.63;2.10;;;14.90;86.00;;;;;;5012218;28;20038;-68
2022/06/08 06:10:09;;;;;;;2.47;2.28;;;15.00;86.00;;;;;;4997738;28;20133;-69
2022/06/08 06:12:35;;;;;;;2.85;2.22;;;15.10;85.90;;;;;;4990739;28;20466;-68
2022/06/08 06:15:02;;;;;;;2.20;2.00;;;15.20;85.60;;;;;;4996251;28;20038;-68
2022/06/08 06:17:28;;;;;;;4.15;1.98;;;15.30;85.40;;;;;;4996780;28;20033;-68
2022/06/08 06:19:55;;;;;;;2.22;1.88;;;15.50;85.30;;;;;;4997518;28;20034;-69
2022/06/08 06:22:21;;;;;;;2.00;1.90;;;15.60;85.10;;;;;;4994419;28;20887;-69
2022/06/08 06:24:46;;;;;;;4.40;1.83;;;15.70;84.60;;;;;;4996459;28;20488;-69
2022/06/08 06:27:12;;;;;;;3.25;1.60;;;15.80;84.60;;;;;;4995861;28;20756;-68
2022/06/08 06:29:38;;;;;;;1.92;1.77;;;16.00;84.50;;;;;;4996048;28;20705;-69
2022/06/08 06:32:13;;;;;;;2.45;1.67;;;16.10;84.20;;;;;;4995047;28;20040;-68
2022/06/08 06:34:39;;;;;;;2.55;1.90;;;16.20;84.10;;;;;;4996047;28;20491;-69
2022/06/08 06:37:05;;;;;;;3.38;1.90;;;16.40;84.00;;;;;;4998228;28;20034;-68
2022/06/08 06:39:30;;;;;;;2.95;1.70;;;16.50;84.00;;;;;;4997469;28;20041;-67
2022/06/08 06:41:57;;;;;;;2.00;1.58;;;16.60;83.80;;;;;;4997320;28;20126;-69
2022/06/08 06:44:23;;;;;;;4.22;1.83;;;16.70;83.30;;;;;;4996087;28;20096;-69
2022/06/08 06:46:49;;;;;;;2.85;1.40;;;16.90;83.10;;;;;;4991492;28;20778;-68
2022/06/08 06:49:15;;;;;;;4.15;1.20;;;17.00;82.40;;;;;;4994085;28;20137;-69
2022/06/08 06:51:41;;;;;;;3.40;1.10;;;17.10;81.00;;;;;;4994477;28;20476;-69
2022/06/08 06:54:09;;;;;;;3.67;1.30;;;17.20;80.40;;;;;;4996180;28;20045;-69
2022/06/08 06:56:35;;;;;;;2.45;1.08;;;17.30;79.80;;;;;;4995303;28;20588;-68
2022/06/08 06:59:02;;;;;;;4.10;1.10;;;17.50;78.90;;;;;;4993300;28;20104;-70
2022/06/08 07:01:27;;;;;;;3.47;1.10;;;17.60;78.00;;;;;;4994502;28;20027;-69
2022/06/08 07:03:53;;;;;;;5.45;1.25;;;17.60;77.90;;;;;;4991226;28;20025;-70
2022/06/08 07:06:19;;;;;;;2.47;1.80;;;17.80;77.70;;;;;;4988516;28;20171;-68
2022/06/08 07:08:44;;;;;;;3.83;1.80;;;17.90;78.50;;;;;;4991844;28;20053;-67
2022/06/08 07:13:56;;;;;;;3.33;1.65;;;18.00;78.30;;;;;;4997033;28;20575;-68
2022/06/08 07:16:22;;;;;;;3.20;1.23;;;18.10;79.30;;;;;;4999551;28;20046;-68
2022/06/08 07:18:48;;;;;;;2.63;1.42;;;18.20;77.60;;;;;;4992531;28;20042;-69
2022/06/08 07:21:14;;;;;;;2.33;1.40;;;18.20;77.60;;;;;;4993495;28;20052;-68
2022/06/08 07:23:41;;;;;;;3.53;1.52;;;18.30;77.50;;;;;;4992727;28;20026;-67
2022/06/08 07:26:06;;;;;;;5.88;1.50;;;18.40;76.90;;;;;;4993897;28;20432;-68
2022/06/08 07:28:32;;;;;;;2.83;1.35;;;18.40;76.10;;;;;;4998058;28;20041;-68
2022/06/08 07:31:00;;;;;;;1.83;1.30;;;18.50;76.30;;;;;;5009375;28;20040;-68
2022/06/08 07:33:26;;;;;;;2.53;1.38;;;18.50;75.30;;;;;;4992901;28;20033;-69
2022/06/08 07:35:51;;;;;;;1.98;1.17;;;18.60;74.80;;;;;;4996248;28;20121;-68
2022/06/08 07:38:17;;;;;;;1.90;1.30;;;18.70;74.20;;;;;;4991633;28;20030;-68
2022/06/08 07:40:42;;;;;;;2.97;1.00;;;18.70;74.60;;;;;;4992430;28;20393;-68
2022/06/08 07:43:08;;;;;;;3.95;1.00;;;18.80;74.60;;;;;;4994517;28;20134;-68
2022/06/08 07:45:34;;;;;;;2.53;0.80;;;18.90;74.10;;;;;;4994933;28;20030;-69
2022/06/08 07:50:44;;;;;;;3.95;1.02;;;19.00;72.00;;;;;;4993713;28;20083;-69
2022/06/08 07:53:10;;;;;;;1.42;0.60;;;19.10;71.20;;;;;;4993536;28;20030;-69
2022/06/08 07:55:36;;;;;;;1.60;0.80;;;19.20;71.10;;;;;;4995126;28;20042;-68
2022/06/08 07:58:03;;;;;;;3.50;0.63;;;19.30;70.10;;;;;;4995096;28;20433;-68
2022/06/08 08:00:29;;;;;;;2.10;0.75;;;19.30;69.90;;;;;;4994374;28;20041;-67
2022/06/08 08:02:55;;;;;;;2.67;0.90;;;19.50;69.80;;;;;;4989089;28;20037;-70
2022/06/08 08:05:22;;;;;;;1.55;0.63;;;19.50;68.80;;;;;;4996684;28;20034;-67
2022/06/08 08:07:49;;;;;;;3.65;0.90;;;19.70;68.80;;;;;;4994176;28;20030;-70
2022/06/08 08:10:18;;;;;;;2.47;0.70;;;19.70;68.20;;;;;;4994522;28;20049;-70
2022/06/08 08:12:44;;;;;;;2.72;0.60;;;19.80;68.10;;;;;;4989969;28;20057;-67
2022/06/08 08:15:10;;;;;;;1.60;0.63;;;19.90;67.80;;;;;;4993522;28;20476;-68
2022/06/08 08:17:36;;;;;;;1.63;0.65;;;20.00;68.00;;;;;;4998528;28;20031;-68
2022/06/08 08:20:04;;;;;;;2.08;0.73;;;20.10;66.10;;;;;;4998699;28;20038;-67
2022/06/08 08:22:30;;;;;;;2.35;0.60;;;20.20;65.00;;;;;;4989498;28;20034;-68
2022/06/08 08:24:56;;;;;;;1.77;0.50;;;20.30;63.80;;;;;;4992219;28;20053;-68
2022/06/08 08:27:21;;;;;;;2.67;0.77;;;20.30;65.00;;;;;;4994424;28;20057;-69
2022/06/08 08:29:47;;;;;;;2.90;0.68;;;20.50;65.00;;;;;;4992741;28;20511;-69
2022/06/08 08:32:13;;;;;;;1.48;0.50;;;20.60;64.80;;;;;;4990641;28;20460;-69
2022/06/08 08:34:38;;;;;;;1.98;0.70;;;20.70;64.60;;;;;;4991572;28;20050;-68
2022/06/08 08:37:04;;;;;;;3.65;1.10;;;20.80;64.50;;;;;;4992549;28;20045;-68
2022/06/08 08:39:30;;;;;;;2.22;0.73;;;21.00;64.40;;;;;;4989064;28;20057;-67
2022/06/08 08:44:58;;;;;;;9.57;1.20;;;21.20;63.80;;;;;;4990139;28;20406;-68
2022/06/08 08:47:40;;;;;;;2.45;0.80;;;21.40;62.00;;;;;;4989531;28;20026;-68
2022/06/08 08:50:25;;;;;;;2.80;0.65;;;21.50;62.70;;;;;;4994263;28;20045;-69
2022/06/08 08:52:51;;;;;;;2.53;0.65;;;21.70;61.90;;;;;;4993662;28;20112;-70
2022/06/08 08:55:47;;;;;;;1.63;0.50;;;21.80;62.00;;;;;;4996767;28;20505;-68
2022/06/08 08:58:15;;;;;;;1.35;0.50;;;21.90;60.50;;;;;;5000377;28;20574;-69
2022/06/08 09:00:54;;;;;;;4.68;0.60;;;22.00;60.70;;;;;;4998459;28;20405;-69
2022/06/08 09:03:40;;;;;;;1.50;0.50;;;22.10;59.10;;;;;;4999386;28;20026;-69
2022/06/08 09:06:33;;;;;;;1.45;0.43;;;22.20;58.30;;;;;;4999172;28;20037;-70
2022/06/08 09:09:03;;;;;;;0.75;0.47;;;22.30;57.60;;;;;;4992907;28;20520;-68
2022/06/08 09:11:38;;;;;;;3.17;0.70;;;22.40;58.90;;;;;;4992932;28;20046;-69
2022/06/08 09:14:11;;;;;;;3.10;0.52;;;22.40;57.00;;;;;;5011695;28;20030;-69
2022/06/08 09:16:49;;;;;;;4.70;0.50;;;22.40;57.40;;;;;;4998007;28;20034;-69
2022/06/08 09:19:21;;;;;;;2.10;0.60;;;22.50;57.80;;;;;;4999950;28;20408;-68
2022/06/08 09:21:48;;;;;;;1.98;0.60;;;22.50;57.00;;;;;;4996609;28;20038;-67
2022/06/08 09:24:30;;;;;;;1.77;0.70;;;22.50;58.00;;;;;;4998640;28;20125;-70
2022/06/08 09:27:05;;;;;;;0.80;0.50;;;22.50;54.40;;;;;;4998231;28;20558;-68
2022/06/08 09:29:31;;;;;;;1.02;0.47;;;22.50;56.50;;;;;;4998529;28;20046;-69
2022/06/08 09:31:57;;;;;;;2.97;0.55;;;22.50;56.10;;;;;;4994757;28;20034;-69
2022/06/08 09:34:33;;;;;;;1.80;0.40;;;22.50;56.70;;;;;;5000358;28;20030;-68
2022/06/08 09:37:28;;;;;;;3.15;0.60;;;22.50;54.40;;;;;;5001064;28;20580;-68
2022/06/08 09:39:58;;;;;;;0.98;0.40;;;22.60;53.40;;;;;;4985487;28;20065;-68
2022/06/08 09:42:36;;;;;;;1.75;0.60;;;22.50;54.30;;;;;;4992044;28;20053;-68
2022/06/08 09:45:19;;;;;;;1.63;0.63;;;22.50;54.60;;;;;;4996668;28;20054;-70
2022/06/08 09:53:57;;;;;;;2.65;0.50;;;22.30;53.50;;;;;;4993031;28;20045;-69
2022/06/08 09:56:28;;;;;;;1.40;0.43;;;22.30;53.60;;;;;;4995931;28;20508;-68
2022/06/08 09:59:12;;;;;;;2.70;0.60;;;22.20;53.90;;;;;;4999845;28;20060;-69
2022/06/08 10:01:58;;;;;;;2.35;0.80;;;22.20;54.00;;;;;;4999049;28;20026;-68
2022/06/08 10:04:39;;;;;;;1.45;0.50;;;22.20;54.20;;;;;;4994352;28;20034;-69
2022/06/08 10:07:24;;;;;;;3.05;0.80;;;22.30;54.70;;;;;;4997082;28;20452;-67
2022/06/08 10:10:31;;;;;;;3.53;0.50;;;22.40;54.50;;;;;;4994132;28;20037;-68
2022/06/08 10:13:03;;;;;;;2.03;0.65;;;22.40;54.10;;;;;;4996852;28;20029;-69
2022/06/08 10:15:41;;;;;;;1.88;0.60;;;22.50;54.40;;;;;;5000476;28;20026;-68
2022/06/08 10:18:21;;;;;;;2.25;0.85;;;22.60;53.80;;;;;;5001617;28;20029;-69
2022/06/08 10:21:00;;;;;;;3.40;0.70;;;22.70;53.60;;;;;;4994674;28;20583;-68
2022/06/08 10:23:50;;;;;;;3.33;0.50;;;22.70;52.90;;;;;;4994975;28;20033;-68
2022/06/08 10:26:23;;;;;;;2.15;0.60;;;22.70;52.40;;;;;;4994177;28;21810;-69
2022/06/08 10:28:55;;;;;;;1.90;0.60;;;22.70;52.40;;;;;;4994955;28;20037;-69
2022/06/08 10:31:30;;;;;;;4.90;0.90;;;22.70;53.70;;;;;;4996561;28;20044;-69
2022/06/08 10:34:18;;;;;;;1.83;0.50;;;22.70;54.90;;;;;;4996003;28;20121;-69
2022/06/08 10:36:48;;;;;;;1.25;0.50;;;22.80;54.20;;;;;;4999815;28;20041;-68
2022/06/08 10:39:15;;;;;;;1.48;0.57;;;22.80;54.40;;;;;;5012400;28;20068;-69
2022/06/08 10:44:51;;;;;;;0.70;0.30;;;23.10;53.90;;;;;;4995593;28;20545;-70
2022/06/08 10:47:21;;;;;;;1.05;0.45;;;23.30;53.90;;;;;;4993375;28;20034;-70
2022/06/08 10:49:49;;;;;;;1.90;0.60;;;23.40;53.90;;;;;;4998449;28;20509;-68
2022/06/08 10:52:17;;;;;;;2.80;0.50;;;23.60;53.70;;;;;;4993919;28;20038;-69
2022/06/08 10:54:53;;;;;;;0.70;0.40;;;23.70;52.60;;;;;;4994791;28;20076;-70
2022/06/08 10:57:42;;;;;;;2.35;0.45;;;23.70;52.70;;;;;;4992598;28;20161;-68
2022/06/08 11:00:19;;;;;;;1.52;0.63;;;23.80;52.10;;;;;;4997313;28;20040;-67
2022/06/08 11:03:02;;;;;;;0.82;0.50;;;23.90;52.00;;;;;;4990729;28;20045;-69
2022/06/08 11:05:39;;;;;;;0.63;0.40;;;24.00;52.10;;;;;;4994437;28;20057;-68
2022/06/08 11:08:07;;;;;;;2.38;0.70;;;24.10;53.00;;;;;;4991855;28;20027;-70
2022/06/08 11:10:43;;;;;;;4.22;0.60;;;24.10;52.60;;;;;;4989922;28;20082;-69
2022/06/08 11:13:18;;;;;;;1.10;0.50;;;24.20;50.90;;;;;;4989815;28;20390;-69
2022/06/08 11:15:53;;;;;;;1.95;0.82;;;24.20;51.30;;;;;;4994243;28;20057;-69
2022/06/08 11:18:24;;;;;;;1.05;0.47;;;24.30;52.30;;;;;;4993155;28;20181;-69
2022/06/08 11:21:14;;;;;;;1.23;0.50;;;24.40;52.30;;;;;;4990735;28;20042;-69
2022/06/08 11:23:46;;;;;;;4.18;0.73;;;24.40;51.40;;;;;;4995786;28;20149;-69
2022/06/08 11:26:19;;;;;;;2.05;0.52;;;24.40;51.50;;;;;;4993299;28;20415;-68
2022/06/08 11:28:50;;;;;;;2.28;0.75;;;24.40;50.80;;;;;;4991755;28;20316;-68
2022/06/08 11:31:25;;;;;;;1.80;0.50;;;24.40;51.30;;;;;;4990089;28;20046;-68
2022/06/08 11:33:51;;;;;;;1.02;0.40;;;24.40;51.40;;;;;;4991884;28;20038;-71
2022/06/08 11:36:20;;;;;;;0.95;0.50;;;24.40;51.60;;;;;;4992952;28;20037;-68
2022/06/08 11:38:54;;;;;;;1.33;0.57;;;24.40;50.60;;;;;;4992047;28;20042;-70
2022/06/08 11:41:20;;;;;;;1.73;0.70;;;24.50;49.30;;;;;;4989022;28;20145;-69
2022/06/08 11:43:48;;;;;;;1.85;0.60;;;24.60;49.90;;;;;;4993475;28;20117;-69
2022/06/08 11:46:38;;;;;;;1.35;0.50;;;24.60;50.40;;;;;;4992129;28;20050;-69
2022/06/08 11:49:07;;;;;;;1.20;0.40;;;24.70;49.00;;;;;;4990313;28;20037;-69
2022/06/08 11:51:41;;;;;;;1.50;0.52;;;24.70;49.80;;;;;;4994682;28;20317;-67
2022/06/08 11:54:21;;;;;;;1.42;0.50;;;24.70;48.60;;;;;;4993892;28;20034;-68
2022/06/08 11:57:10;;;;;;;2.47;0.50;;;24.80;49.00;;;;;;4994036;28;20084;-69
2022/06/08 11:59:37;;;;;;;0.90;0.32;;;24.80;48.80;;;;;;4995282;28;20408;-68
2022/06/08 12:02:22;;;;;;;1.15;0.35;;;24.80;48.90;;;;;;4998282;28;20037;-68
2022/06/08 12:04:51;;;;;;;1.85;0.40;;;24.80;48.40;;;;;;4994257;28;20053;-68
2022/06/08 12:07:29;;;;;;;1.50;0.68;;;24.80;49.00;;;;;;4994424;28;20031;-70
2022/06/08 12:09:55;;;;;;;1.77;0.32;;;24.80;48.20;;;;;;4993696;28;20038;-69
2022/06/08 12:12:25;;;;;;;4.20;0.40;;;24.90;49.10;;;;;;4994019;28;20034;-70
2022/06/08 12:14:52;;;;;;;1.15;0.35;;;24.90;46.90;;;;;;4997425;28;20038;-69
2022/06/08 12:17:18;;;;;;;0.63;0.38;;;24.90;47.40;;;;;;4994032;28;20162;-69
2022/06/08 12:19:47;;;;;;;1.17;0.50;;;24.90;46.50;;;;;;4994006;28;20129;-69
2022/06/08 12:22:32;;;;;;;1.98;0.40;;;24.80;46.00;;;;;;4993939;28;20375;-69
2022/06/08 12:25:10;;;;;;;;;;;24.90;47.00;;;;;;4993102;28;20030;-68
2022/06/08 12:27:55;;;;;;;4.00;0.65;;;24.90;48.60;;;;;;5008082;28;19918;-69
2022/06/08 12:30:21;;;;;;;10.48;0.73;;;24.90;46.40;;;;;;4989065;28;20135;-70
2022/06/08 12:32:54;;;;;;;2.38;0.50;;;24.90;47.20;;;;;;4995117;28;20038;-69
2022/06/08 12:35:30;;;;;;;1.52;0.40;;;24.90;47.00;;;;;;4994137;28;20037;-68
2022/06/08 12:38:26;;;;;;;2.33;0.50;;;24.90;47.20;;;;;;4994352;28;20052;-69
2022/06/08 12:41:04;;;;;;;1.33;0.55;;;24.90;47.40;;;;;;4992807;28;20148;-68
2022/06/08 12:43:39;;;;;;;1.30;0.40;;;24.90;47.30;;;;;;4992607;28;20133;-69
2022/06/08 12:46:14;;;;;;;2.78;0.40;;;24.90;46.50;;;;;;4994930;28;20060;-69
2022/06/08 12:48:46;;;;;;;2.15;0.50;;;24.90;45.90;;;;;;4995138;28;20038;-70
2022/06/08 12:51:22;;;;;;;4.30;0.73;;;24.90;46.20;;;;;;4992977;28;20567;-70
2022/06/08 12:53:48;;;;;;;1.55;0.40;;;24.90;45.60;;;;;;4991690;28;20038;-69
2022/06/08 12:56:14;;;;;;;1.90;0.50;;;24.90;46.40;;;;;;4991593;28;20049;-70
2022/06/08 12:58:40;;;;;;;2.00;0.50;;;24.80;46.50;;;;;;4990538;28;20543;-68
2022/06/08 13:01:11;;;;;;;1.40;0.55;;;24.80;46.30;;;;;;4989826;28;20627;-70
2022/06/08 13:03:37;;;;;;;2.38;0.40;;;24.90;45.30;;;;;;4993748;28;20041;-69
2022/06/08 13:06:02;;;;;;;0.95;0.30;;;24.90;47.00;;;;;;4993217;28;20034;-70
2022/06/08 13:08:28;;;;;;;3.30;0.40;;;24.90;46.50;;;;;;5005228;28;20096;-69
2022/06/08 13:11:00;;;;;;;1.88;0.52;;;25.00;46.20;;;;;;4989372;28;20119;-70
2022/06/08 13:13:29;;;;;;;0.80;0.43;;;25.00;45.90;;;;;;4990305;28;20597;-70
2022/06/08 13:15:57;;;;;;;1.00;0.47;;;25.00;45.20;;;;;;4990010;28;20121;-69
2022/06/08 13:18:26;;;;;;;0.82;0.32;;;25.00;45.50;;;;;;4989399;28;20069;-69
2022/06/08 13:20:54;;;;;;;1.38;0.50;;;25.00;46.30;;;;;;4988460;28;20173;-70
2022/06/08 13:23:21;;;;;;;2.08;0.63;;;25.00;46.50;;;;;;4991094;28;20041;-69
2022/06/08 13:25:48;;;;;;;2.08;0.50;;;25.00;46.30;;;;;;5005306;28;20070;-69
2022/06/08 13:28:19;;;;;;;3.92;0.88;;;25.00;46.40;;;;;;4991212;28;20590;-69